Time;durP1;ratioP1;P1;durP2;ratioP2;P2;SDS_P1;SDS_P2;PMS_P1;PMS_P2;Temp;Humidity;BMP_temperature;BMP_pressure;BME280_temperature;BME280_humidity;BME280_pressure;Samples;Min_cycle;Max_cycle;Signal;HPM_P1;HPM_P2
2021/05/11 00:02:05;;;;;;;3.90;2.97;;;;;;;12.70;65.63;100620.72;5073138;28;20201;-74
2021/05/11 00:04:33;;;;;;;4.80;3.07;;;;;;;12.55;66.59;100605.78;5060456;28;20717;-74
2021/05/11 00:07:01;;;;;;;4.50;2.93;;;;;;;12.53;66.01;100623.84;5055754;28;20549;-74
2021/05/11 00:09:28;;;;;;;4.93;2.83;;;;;;;12.48;66.05;100630.59;5073323;28;20223;-74
2021/05/11 00:11:56;;;;;;;4.73;2.60;;;;;;;12.25;66.02;100598.22;5074451;28;20228;-74
2021/05/11 00:14:23;;;;;;;4.17;2.97;;;;;;;12.31;66.22;100607.66;5073415;28;20195;-74
2021/05/11 00:16:50;;;;;;;5.57;2.67;;;;;;;12.44;66.34;100627.28;5074522;28;20193;-75
2021/05/11 00:19:18;;;;;;;7.30;3.30;;;;;;;12.43;65.75;100634.50;5050988;28;20210;-75
2021/05/11 00:21:45;;;;;;;4.57;2.93;;;;;;;12.39;66.46;100633.03;5073957;28;20231;-75
2021/05/11 00:24:16;;;;;;;6.20;3.13;;;;;;;12.30;67.10;100625.66;5074662;28;20648;-74
2021/05/11 00:26:43;;;;;;;3.57;3.13;;;;;;;12.15;67.38;100607.13;5073503;28;20208;-75
2021/05/11 00:29:11;;;;;;;4.87;2.97;;;;;;;11.97;66.85;100594.09;5072207;28;20204;-74
2021/05/11 00:31:38;;;;;;;8.30;3.00;;;;;;;12.11;66.25;100622.66;5055653;28;20201;-74
2021/05/11 00:34:05;;;;;;;7.07;3.43;;;;;;;11.94;66.16;100605.09;5074337;28;20197;-74
2021/05/11 00:36:32;;;;;;;4.47;2.83;;;;;;;12.03;66.80;100625.06;5055028;28;20653;-74
2021/05/11 00:38:59;;;;;;;6.90;2.90;;;;;;;12.07;66.72;100638.19;5054058;28;20208;-74
2021/05/11 00:41:28;;;;;;;3.70;2.83;;;;;;;11.81;67.77;100623.13;5073832;28;20204;-74
2021/05/11 00:43:55;;;;;;;5.27;2.70;;;;;;;11.91;67.15;100636.75;5066952;28;20700;-74
2021/05/11 00:46:22;;;;;;;3.47;2.70;;;;;;;11.92;67.28;100644.69;5073565;28;20283;-74
2021/05/11 00:48:49;;;;;;;5.80;3.10;;;;;;;11.84;67.20;100641.72;5056250;28;20204;-74
2021/05/11 00:51:17;;;;;;;5.10;2.60;;;;;;;11.79;67.42;100649.28;5063519;28;20198;-74
2021/05/11 00:53:45;;;;;;;4.43;2.83;;;;;;;11.57;69.16;100646.44;5072036;28;20196;-74
2021/05/11 00:56:13;;;;;;;5.17;3.10;;;;;;;11.50;69.19;100643.34;5073932;28;20207;-75
2021/05/11 00:58:41;;;;;;;4.73;2.70;;;;;;;11.55;67.97;100656.44;5072316;28;20201;-74
2021/05/11 01:01:08;;;;;;;6.47;3.57;;;;;;;11.58;67.70;100650.84;5070401;28;20202;-74
2021/05/11 01:03:36;;;;;;;4.60;2.90;;;;;;;11.59;67.32;100656.09;5073947;28;20219;-74
2021/05/11 01:06:04;;;;;;;3.50;3.00;;;;;;;11.59;67.62;100652.56;5070606;28;20313;-74
2021/05/11 01:08:31;;;;;;;6.10;3.10;;;;;;;11.55;67.60;100645.69;5069237;28;20209;-74
2021/05/11 01:10:58;;;;;;;4.00;2.80;;;;;;;11.58;66.97;100642.78;5063943;28;20206;-74
2021/05/11 01:13:26;;;;;;;3.83;2.70;;;;;;;11.48;66.82;100640.75;5036140;28;20200;-74
2021/05/11 01:15:54;;;;;;;4.33;2.80;;;;;;;11.50;66.88;100654.94;5053992;28;20232;-73
2021/05/11 01:18:30;;;;;;;3.50;2.80;;;;;;;11.52;67.11;100653.00;5065823;28;20647;-73
2021/05/11 01:21:03;;;;;;;3.87;2.50;;;;;;;11.52;67.36;100657.53;5069277;28;20197;-74
2021/05/11 01:26:23;;;;;;;4.73;3.27;;;;;;;11.48;67.54;100682.94;5040733;28;20422;-73
2021/05/11 01:28:57;;;;;;;4.97;2.77;;;;;;;11.27;66.99;100652.22;5069068;28;20613;-73
2021/05/11 01:31:44;;;;;;;5.93;2.83;;;;;;;11.38;67.77;100682.75;5057846;28;20196;-73
2021/05/11 01:48:03;;;;;;;5.17;2.80;;;;;;;11.15;67.28;100675.47;5068961;28;20694;-74
2021/05/11 01:50:32;;;;;;;3.70;2.80;;;;;;;11.11;67.52;100690.94;5067921;28;20211;-73
2021/05/11 01:56:11;;;;;;;6.27;3.20;;;;;;;11.11;67.26;100700.84;5051498;28;20231;-74
2021/05/11 01:59:16;;;;;;;3.40;2.87;;;;;;;11.11;68.12;100700.84;5049960;28;20208;-74
2021/05/11 02:23:58;;;;;;;8.70;3.47;;;;;;;10.89;67.74;100702.34;5061118;28;20635;-73
2021/05/11 02:26:25;;;;;;;4.63;3.20;;;;;;;10.91;67.80;100704.91;5068044;28;20199;-74
2021/05/11 02:28:53;;;;;;;5.10;3.20;;;;;;;10.92;68.20;100711.16;5063236;28;20322;-74
2021/05/11 02:31:20;;;;;;;5.47;3.20;;;;;;;10.89;68.60;100713.09;5063206;28;20661;-74
2021/05/11 02:33:47;;;;;;;4.50;2.87;;;;;;;10.94;68.47;100717.28;5055081;28;20219;-74
2021/05/11 02:36:14;;;;;;;5.20;3.10;;;;;;;10.94;68.62;100720.81;5056308;28;20193;-71
2021/05/11 02:38:42;;;;;;;3.77;2.90;;;;;;;10.98;67.79;100732.22;5067091;28;20194;-74
2021/05/11 02:41:09;;;;;;;6.33;3.20;;;;;;;10.85;67.69;100722.34;5050556;28;20210;-74
2021/05/11 02:43:38;;;;;;;5.43;2.90;;;;;;;11.02;67.65;100752.53;5065386;28;20207;-74
2021/05/11 02:46:06;;;;;;;6.60;3.50;;;;;;;11.01;68.17;100751.66;5059216;28;20564;-74
2021/05/11 02:48:33;;;;;;;4.03;2.93;;;;;;;11.00;68.39;100741.88;5064560;28;20640;-74
2021/05/11 02:51:03;;;;;;;7.00;3.10;;;;;;;10.96;68.19;100736.84;5066264;28;20194;-73
2021/05/11 02:53:31;;;;;;;5.40;3.43;;;;;;;11.02;68.63;100744.47;5063348;28;20198;-73
2021/05/11 02:55:58;;;;;;;3.17;2.53;;;;;;;11.06;67.88;100737.94;5059253;28;20205;-73
2021/05/11 02:58:25;;;;;;;4.23;2.90;;;;;;;11.09;67.58;100735.91;5056316;28;20207;-73
2021/05/11 03:00:52;;;;;;;4.43;3.27;;;;;;;11.12;68.26;100724.06;5057096;28;20197;-74
2021/05/11 03:03:20;;;;;;;4.83;3.10;;;;;;;11.14;68.36;100732.88;5066050;28;20744;-74
2021/05/11 03:05:48;;;;;;;3.90;2.90;;;;;;;11.19;68.07;100741.47;5068611;28;20196;-75
2021/05/11 03:08:17;;;;;;;5.37;3.00;;;;;;;11.23;68.06;100742.13;5066884;28;20193;-74
2021/05/11 03:10:44;;;;;;;4.50;3.00;;;;;;;11.19;67.89;100731.56;5060624;28;20200;-74
2021/05/11 03:13:11;;;;;;;466.80;316.80;;;;;;;11.32;67.95;100746.81;5066056;28;20217;-74
2021/05/11 03:15:38;;;;;;;38.73;26.37;;;;;;;11.43;67.47;100749.63;5063445;28;20212;-74
2021/05/11 03:18:06;;;;;;;11.17;5.87;;;;;;;11.51;68.36;100737.34;5065241;28;20202;-74
2021/05/11 03:20:35;;;;;;;9.50;4.90;;;;;;;11.60;69.21;100732.28;5060788;28;20257;-74
2021/05/11 03:23:02;;;;;;;7.43;5.10;;;;;;;11.87;70.38;100759.91;5065354;28;20196;-74
2021/05/11 03:25:29;;;;;;;6.53;3.90;;;;;;;12.02;71.69;100753.41;5071260;28;20248;-74
2021/05/11 03:27:59;;;;;;;5.50;3.13;;;;;;;12.21;70.22;100746.66;5070295;28;20246;-74
2021/05/11 03:30:26;;;;;;;7.37;5.00;;;;;;;12.40;68.90;100752.38;5068148;28;20199;-74
2021/05/11 03:32:56;;;;;;;11.37;3.70;;;;;;;12.56;69.98;100752.97;5054485;28;20674;-74
2021/05/11 03:35:23;;;;;;;9.57;6.03;;;;;;;12.69;70.54;100753.72;5063537;28;20318;-74
2021/05/11 03:37:52;;;;;;;5.27;3.57;;;;;;;12.84;69.66;100761.59;5060798;28;20205;-74
2021/05/11 03:40:20;;;;;;;3.93;2.60;;;;;;;12.98;70.32;100758.72;5058614;28;20215;-75
2021/05/11 03:42:52;;;;;;;8.20;4.30;;;;;;;13.12;70.01;100757.63;5052885;28;20699;-74
2021/05/11 03:45:23;;;;;;;4.70;3.37;;;;;;;13.26;69.74;100769.09;5060948;28;20213;-75
2021/05/11 03:47:54;;;;;;;9.63;8.47;;;;;;;13.42;69.52;100765.19;5060497;28;20656;-76
2021/05/11 03:50:21;;;;;;;4.07;2.40;;;;;;;13.51;69.02;100767.16;5063565;28;20239;-75
2021/05/11 03:52:49;;;;;;;4.67;3.67;;;;;;;13.60;69.74;100763.72;5061527;28;20200;-74
2021/05/11 03:55:17;;;;;;;2.37;2.10;;;;;;;13.67;68.83;100764.94;5053667;28;20204;-74
2021/05/11 03:57:45;;;;;;;3.73;2.50;;;;;;;13.54;69.87;100742.63;5057434;28;20197;-75
2021/05/11 04:00:14;;;;;;;1.77;1.67;;;;;;;13.82;68.98;100777.22;5062750;28;20690;-74
2021/05/11 04:02:41;;;;;;;4.07;1.90;;;;;;;13.92;69.48;100777.31;5061633;28;20306;-73
2021/05/11 04:05:12;;;;;;;5.60;5.10;;;;;;;14.08;70.62;100794.00;5063444;28;20223;-73
2021/05/11 04:07:41;;;;;;;2.60;1.90;;;;;;;14.20;70.95;100794.81;5066711;28;20232;-74
2021/05/11 04:10:16;;;;;;;1.67;1.50;;;;;;;14.31;71.03;100792.09;5064605;28;20204;-75
2021/05/11 04:13:04;;;;;;;1.50;1.40;;;;;;;14.46;71.49;100793.56;5067659;28;20684;-75
2021/05/11 04:18:19;;;;;;;1.23;1.23;;;;;;;14.67;69.38;100792.75;5069390;28;20675;-74
2021/05/11 04:20:46;;;;;;;3.57;1.80;;;;;;;14.77;68.79;100786.44;5061614;28;20193;-74
2021/05/11 04:23:14;;;;;;;1.40;1.30;;;;;;;14.82;70.23;100794.16;5065085;28;20620;-74
2021/05/11 04:25:42;;;;;;;1.63;1.53;;;;;;;14.91;69.98;100804.19;5070659;28;20577;-74
2021/05/11 04:28:11;;;;;;;1.40;1.30;;;;;;;14.99;68.91;100800.81;5068405;28;20233;-74
2021/05/11 04:30:38;;;;;;;1.30;1.20;;;;;;;15.09;67.93;100802.63;5062021;28;20726;-74
2021/05/11 04:33:07;;;;;;;4.07;1.40;;;;;;;15.18;68.70;100812.66;5055430;28;20237;-74
2021/05/11 04:35:34;;;;;;;1.30;1.20;;;;;;;15.30;68.43;100809.88;5037567;28;20193;-74
2021/05/11 04:38:05;;;;;;;2.03;1.10;;;;;;;15.41;69.38;100807.13;5058691;28;20204;-74
2021/05/11 04:40:32;;;;;;;3.43;1.23;;;;;;;15.57;69.17;100812.03;5056662;28;20486;-74
2021/05/11 04:43:00;;;;;;;1.20;1.10;;;;;;;15.70;69.18;100824.41;5050750;28;20657;-74
2021/05/11 04:45:32;;;;;;;1.80;1.27;;;;;;;15.83;69.26;100814.19;5052480;28;20722;-74
2021/05/11 04:48:01;;;;;;;1.80;1.10;;;;;;;16.02;68.86;100820.69;5060084;28;20196;-74
2021/05/11 04:50:29;;;;;;;1.67;1.00;;;;;;;16.18;68.39;100807.47;5051608;28;20186;-74
2021/05/11 04:52:57;;;;;;;1.10;1.00;;;;;;;16.32;70.13;100812.50;5047010;28;20190;-74
2021/05/11 04:55:25;;;;;;;1.37;1.27;;;;;;;16.40;69.44;100804.53;5051515;28;20578;-74
2021/05/11 04:57:53;;;;;;;1.20;1.10;;;;;;;16.48;68.56;100811.94;5053864;28;20387;-74
2021/05/11 05:00:21;;;;;;;0.80;0.80;;;;;;;16.54;67.27;100806.00;5050954;28;20205;-74
2021/05/11 05:02:53;;;;;;;1.07;1.00;;;;;;;16.62;67.58;100810.72;5055619;28;20731;-74
2021/05/11 05:05:25;;;;;;;1.40;1.00;;;;;;;16.57;66.94;100807.56;5054961;28;20307;-74
2021/05/11 05:07:53;;;;;;;1.03;1.00;;;;;;;16.37;67.53;100818.38;5057861;28;20194;-74
2021/05/11 05:10:21;;;;;;;3.90;1.40;;;;;;;16.27;68.05;100814.78;5055618;28;20482;-75
2021/05/11 05:12:48;;;;;;;0.90;0.90;;;;;;;16.37;67.05;100826.50;5054760;28;20210;-74
2021/05/11 05:15:16;;;;;;;2.20;1.20;;;;;;;16.36;67.25;100827.50;5057436;28;20186;-75
2021/05/11 05:17:44;;;;;;;2.73;1.07;;;;;;;16.29;67.96;100820.91;5053549;28;20657;-75
2021/05/11 05:20:13;;;;;;;1.87;0.93;;;;;;;16.29;67.88;100807.38;5056672;28;20232;-75
2021/05/11 05:22:42;;;;;;;2.00;1.10;;;;;;;16.30;68.29;100811.78;5048428;28;20205;-74
2021/05/11 05:25:13;;;;;;;0.90;0.90;;;;;;;16.35;67.89;100811.38;5057995;28;20262;-74
2021/05/11 05:27:47;;;;;;;4.27;1.00;;;;;;;16.44;67.69;100815.94;5066355;28;20622;-74
2021/05/11 05:30:16;;;;;;;0.80;0.80;;;;;;;16.62;66.28;100803.44;5067391;28;20212;-74
2021/05/11 05:32:43;;;;;;;1.37;0.70;;;;;;;16.54;64.95;100800.56;5066791;28;20655;-74
2021/05/11 05:35:12;;;;;;;2.77;1.00;;;;;;;16.71;65.55;100804.47;5055118;28;20205;-74
2021/05/11 05:37:43;;;;;;;0.73;0.73;;;;;;;16.88;64.42;100801.03;5067319;28;20217;-74
2021/05/11 05:40:13;;;;;;;1.27;0.90;;;;;;;17.14;64.17;100828.44;5061435;28;20194;-74
2021/05/11 05:42:40;;;;;;;1.57;0.93;;;;;;;17.26;63.64;100816.44;5057164;28;20213;-74
2021/05/11 05:45:09;;;;;;;1.50;1.03;;;;;;;17.27;62.84;100796.44;5061405;28;20220;-73
2021/05/11 05:47:37;;;;;;;3.87;0.93;;;;;;;17.33;62.64;100825.69;5054096;28;20231;-74
2021/05/11 05:50:08;;;;;;;2.80;1.10;;;;;;;17.49;61.96;100803.38;5051517;28;20306;-73
2021/05/11 05:52:38;;;;;;;1.40;0.80;;;;;;;17.95;61.89;100831.56;5065320;28;20209;-74
2021/05/11 05:55:08;;;;;;;2.50;1.00;;;;;;;18.20;60.68;100828.16;5059711;28;20569;-74
2021/05/11 05:57:35;;;;;;;1.07;0.90;;;;;;;18.38;60.14;100814.63;5062648;28;20205;-74
2021/05/11 06:00:04;;;;;;;3.53;1.20;;;;;;;18.60;59.82;100816.03;5062183;28;20231;-74
2021/05/11 06:02:43;;;;;;;4.00;0.93;;;;;;;18.69;57.97;100820.59;5065887;28;20200;-74
2021/05/11 06:05:12;;;;;;;2.27;1.20;;;;;;;18.56;58.08;100820.91;5058406;28;20329;-74
2021/05/11 06:07:40;;;;;;;1.97;0.93;;;;;;;18.55;57.75;100831.94;5050876;28;20236;-73
2021/05/11 06:10:12;;;;;;;2.47;1.30;;;;;;;18.74;58.18;100831.00;5050394;28;20292;-74
2021/05/11 06:12:46;;;;;;;0.90;0.80;;;;;;;18.86;57.72;100825.16;5052387;28;20213;-74
2021/05/11 06:17:59;;;;;;;1.70;1.00;;;;;;;19.17;56.79;100816.59;5062663;28;20217;-75
2021/05/11 06:20:27;;;;;;;4.33;1.00;;;;;;;19.48;56.53;100808.81;5062093;28;20274;-74
2021/05/11 06:22:55;;;;;;;1.43;1.10;;;;;;;19.82;57.08;100809.75;5061727;28;20194;-74
2021/05/11 06:25:24;;;;;;;4.40;1.17;;;;;;;19.87;54.44;100779.25;5063459;28;20720;-74
2021/05/11 06:27:56;;;;;;;2.50;0.80;;;;;;;20.17;54.94;100802.41;5066964;28;20241;-74
2021/05/11 06:30:23;;;;;;;3.50;0.90;;;;;;;20.01;52.81;100803.19;5064699;28;20729;-74
2021/05/11 06:32:51;;;;;;;2.47;0.90;;;;;;;19.58;51.59;100797.84;5066815;28;20201;-74
2021/05/11 06:35:22;;;;;;;1.20;0.50;;;;;;;19.27;53.06;100798.28;5042594;28;20263;-74
2021/05/11 06:37:56;;;;;;;1.97;0.90;;;;;;;19.50;53.44;100801.34;5068199;28;20200;-75
2021/05/11 06:40:25;;;;;;;1.17;0.70;;;;;;;19.59;53.84;100813.16;5064124;28;20208;-74
2021/05/11 06:42:52;;;;;;;2.63;1.00;;;;;;;19.81;53.52;100816.22;5059418;28;20194;-74
2021/05/11 06:46:01;;;;;;;1.60;0.90;;;;;;;20.16;53.41;100819.78;5054352;28;20217;-74
2021/05/11 06:48:21;;;;;;;2.17;0.60;;;;;;;20.52;53.19;100812.28;5062121;28;20700;-75
2021/05/11 06:53:48;;;;;;;0.60;0.60;;;;;;;20.97;51.25;100808.25;5063399;28;20674;-74
2021/05/11 06:56:18;;;;;;;2.40;1.13;;;;;;;21.09;51.22;100815.06;5052018;28;20228;-74
2021/05/11 06:58:46;;;;;;;2.13;1.00;;;;;;;21.21;50.93;100783.69;5055899;28;20185;-74
2021/05/11 07:01:15;;;;;;;1.47;0.70;;;;;;;21.74;50.56;100826.00;5069278;28;20193;-74
2021/05/11 07:03:43;;;;;;;1.33;0.80;;;;;;;21.78;49.86;100829.22;5064891;28;20227;-74
2021/05/11 07:06:12;;;;;;;1.80;0.73;;;;;;;21.35;47.85;100788.47;5060370;28;20236;-74
2021/05/11 07:08:42;;;;;;;1.60;0.80;;;;;;;21.19;48.54;100784.88;5063716;28;20194;-74
2021/05/11 07:11:25;;;;;;;1.73;1.00;;;;;;;21.37;49.18;100829.28;5056808;28;20194;-75
2021/05/11 07:13:53;;;;;;;2.37;0.80;;;;;;;21.34;48.91;100821.44;5061797;28;20696;-74
2021/05/11 07:16:22;;;;;;;2.33;0.90;;;;;;;21.38;49.19;100801.78;5048947;28;20246;-74
2021/05/11 07:18:49;;;;;;;1.07;0.87;;;;;;;21.62;48.83;100819.16;5065249;28;20225;-74
2021/05/11 07:21:17;;;;;;;0.80;0.57;;;;;;;21.66;47.53;100807.72;5056370;28;20664;-74
2021/05/11 07:23:44;;;;;;;1.70;0.83;;;;;;;21.60;47.61;100796.63;5058676;28;20202;-74
2021/05/11 07:26:23;;;;;;;4.00;1.00;;;;;;;21.35;48.40;100780.25;5062818;28;20213;-74
2021/05/11 07:29:06;;;;;;;0.63;0.60;;;;;;;21.69;48.52;100801.88;5065784;28;20229;-74
2021/05/11 07:31:36;;;;;;;1.50;0.90;;;;;;;22.21;46.53;100803.28;5062298;28;20186;-75
2021/05/11 07:34:06;;;;;;;1.00;0.80;;;;;;;21.88;45.72;100803.38;5061342;28;20280;-75
2021/05/11 07:36:34;;;;;;;0.80;0.80;;;;;;;22.06;47.18;100796.88;5050180;28;20206;-74
2021/05/11 07:39:02;;;;;;;1.23;0.90;;;;;;;22.15;47.60;100788.44;5057782;28;20292;-74
2021/05/11 07:41:30;;;;;;;1.27;0.80;;;;;;;22.11;46.97;100769.84;5067766;28;20284;-74
2021/05/11 07:43:59;;;;;;;1.03;0.60;;;;;;;22.62;47.55;100807.50;5065818;28;20190;-74
2021/05/11 07:46:38;;;;;;;2.03;1.30;;;;;;;22.82;47.00;100774.22;5072128;28;20217;-74
2021/05/11 08:14:34;;;;;;;2.83;1.20;;;;;;;23.89;45.00;100799.63;5069268;28;20702;-74
2021/05/11 08:17:04;;;;;;;0.90;0.90;;;;;;;23.40;44.59;100794.59;5067288;28;20378;-74
2021/05/11 08:27:56;;;;;;;1.73;0.90;;;;;;;24.94;43.70;100802.81;5044423;28;20217;-74
2021/05/11 08:30:24;;;;;;;0.90;0.90;;;;;;;25.13;43.20;100799.44;5047204;28;20298;-74
2021/05/11 08:32:53;;;;;;;2.63;1.37;;;;;;;25.27;42.36;100797.66;5049464;28;20197;-73
2021/05/11 08:35:22;;;;;;;3.03;1.20;;;;;;;24.78;41.75;100793.75;5040828;28;20210;-74
2021/05/11 08:37:50;;;;;;;2.70;1.70;;;;;;;24.05;43.18;100786.53;5044323;28;20220;-74
2021/05/11 08:40:17;;;;;;;1.23;1.10;;;;;;;24.37;43.69;100790.78;5043849;28;20595;-73
2021/05/11 08:42:45;;;;;;;0.90;0.90;;;;;;;24.59;43.64;100788.06;5048103;28;20214;-74
2021/05/11 08:45:14;;;;;;;2.27;0.90;;;;;;;24.43;44.30;100754.31;5033670;28;20718;-74
2021/05/11 08:47:49;;;;;;;1.83;1.10;;;;;;;24.57;43.96;100791.03;5040961;28;20198;-74
2021/05/11 08:50:21;;;;;;;1.53;1.17;;;;;;;24.76;42.03;100806.00;5036625;28;20240;-73
2021/05/11 08:53:05;;;;;;;0.90;0.90;;;;;;;24.76;43.14;100798.59;5043554;28;20202;-74
2021/05/11 09:09:49;;;;;;;0.90;0.90;;;;;;;24.17;44.53;100819.81;5042393;28;20194;-74
2021/05/11 09:24:01;;;;;;;2.03;1.20;;;;;;;24.04;44.68;100819.66;5062813;28;20229;-74
2021/05/11 09:26:39;;;;;;;1.00;1.00;;;;;;;23.89;44.79;100824.31;5067223;28;20213;-73
2021/05/11 09:29:24;;;;;;;1.73;1.13;;;;;;;24.26;43.53;100815.97;5067320;28;20189;-74
2021/05/11 09:31:59;;;;;;;1.50;1.23;;;;;;;24.17;45.10;100822.56;5055996;28;20201;-74
2021/05/11 09:34:35;;;;;;;1.03;0.97;;;;;;;24.32;44.74;100782.28;5059445;28;20276;-74
2021/05/11 09:57:18;;;;;;;1.80;0.87;;;;;;;23.75;44.86;100815.88;5030447;28;20190;-73
2021/05/11 10:12:03;;;;;;;1.73;1.13;;;;;;;23.49;45.24;100796.22;5068927;28;20208;-73
2021/05/11 10:46:43;;;;;;;1.10;1.00;;;;;;;22.69;46.46;100806.81;5024984;28;20230;-73
2021/05/11 10:49:27;;;;;;;2.83;1.00;;;;;;;22.37;46.15;100803.22;5057981;28;20189;-73
2021/05/11 10:52:08;;;;;;;1.80;1.10;;;;;;;22.48;47.21;100799.22;5061792;28;20546;-74
2021/05/11 10:54:38;;;;;;;1.60;0.80;;;;;;;22.82;48.34;100802.44;5062005;28;20208;-73
2021/05/11 10:57:27;;;;;;;1.10;1.00;;;;;;;23.16;47.53;100810.22;5047431;28;20560;-73
2021/05/11 11:00:13;;;;;;;0.73;0.73;;;;;;;23.01;47.19;100805.75;5062637;28;20189;-74
2021/05/11 11:02:46;;;;;;;0.90;0.90;;;;;;;22.69;47.33;100796.69;5058306;28;20208;-73
2021/05/11 11:05:40;;;;;;;5.47;1.10;;;;;;;22.69;46.89;100787.63;5064173;28;20197;-73
2021/05/11 11:08:31;;;;;;;1.57;0.93;;;;;;;22.70;48.50;100779.25;5056393;28;20564;-73
2021/05/11 11:11:10;;;;;;;0.97;0.97;;;;;;;22.89;47.64;100775.16;5065810;28;20197;-73
2021/05/11 11:13:39;;;;;;;1.00;1.00;;;;;;;22.72;47.92;100779.06;5058426;28;20298;-73
2021/05/11 11:16:08;;;;;;;1.63;0.90;;;;;;;22.56;48.47;100775.38;5070750;28;20196;-73
2021/05/11 11:18:36;;;;;;;0.90;0.80;;;;;;;22.73;47.69;100778.88;5070438;28;20280;-72
2021/05/11 11:21:19;;;;;;;1.17;1.10;;;;;;;22.73;47.51;100781.59;5050043;28;20557;-73
2021/05/11 11:23:48;;;;;;;4.40;1.30;;;;;;;22.72;47.38;100779.91;5045513;28;20534;-73
2021/05/11 11:26:24;;;;;;;1.63;1.13;;;;;;;23.05;47.07;100780.53;5062280;28;20248;-73
2021/05/11 11:28:59;;;;;;;1.17;1.00;;;;;;;23.08;47.57;100774.69;5041411;28;20598;-73
2021/05/11 11:31:29;;;;;;;2.60;0.93;;;;;;;23.35;47.41;100791.56;5057158;28;20193;-73
2021/05/11 11:34:15;;;;;;;2.47;0.97;;;;;;;23.47;47.28;100782.69;5051711;28;20409;-74
2021/05/11 11:36:47;;;;;;;1.87;1.10;;;;;;;23.51;45.79;100792.25;5043964;28;20226;-73
2021/05/11 11:39:20;;;;;;;1.20;1.00;;;;;;;23.28;45.49;100790.63;5046915;28;20216;-73
2021/05/11 11:41:49;;;;;;;1.10;1.00;;;;;;;23.10;46.11;100769.88;5051006;28;20700;-73
2021/05/11 11:44:18;;;;;;;2.10;0.80;;;;;;;23.11;46.74;100784.41;5041588;28;20206;-72
2021/05/11 11:46:50;;;;;;;0.83;0.83;;;;;;;23.46;46.20;100771.91;5045589;28;20606;-73
2021/05/11 11:49:20;;;;;;;1.53;0.93;;;;;;;23.60;46.72;100773.88;5050514;28;20724;-73
2021/05/11 11:51:59;;;;;;;2.33;0.90;;;;;;;23.57;46.13;100776.97;5047420;28;20599;-73
2021/05/11 11:54:33;;;;;;;0.77;0.77;;;;;;;23.78;46.80;100787.19;5041578;28;20212;-74
2021/05/11 11:59:57;;;;;;;3.00;1.00;;;;;;;23.13;46.52;100780.47;5044484;28;20220;-73
2021/05/11 12:02:24;;;;;;;1.10;0.80;;;;;;;23.07;45.90;100772.13;5043626;28;20727;-73
2021/05/11 12:04:52;;;;;;;1.30;0.80;;;;;;;23.19;47.38;100722.16;5044874;28;20225;-72
2021/05/11 12:07:23;;;;;;;1.20;0.90;;;;;;;23.44;47.18;100754.81;5050677;28;20214;-73
2021/05/11 12:09:52;;;;;;;1.90;1.20;;;;;;;23.63;46.69;100759.78;5048910;28;20564;-73
2021/05/11 12:12:20;;;;;;;2.30;1.40;;;;;;;23.35;46.64;100758.69;5050220;28;20225;-73
2021/05/11 12:14:48;;;;;;;1.17;0.90;;;;;;;23.39;45.63;100760.00;5039303;28;20199;-73
2021/05/11 12:17:17;;;;;;;1.77;1.10;;;;;;;23.11;45.97;100746.91;5043714;28;20772;-73
2021/05/11 12:19:45;;;;;;;1.37;1.10;;;;;;;23.20;46.61;100770.44;5041404;28;20661;-73
2021/05/11 12:22:15;;;;;;;1.10;1.10;;;;;;;23.08;46.86;100777.41;5037265;28;20708;-73
2021/05/11 12:24:44;;;;;;;1.00;0.90;;;;;;;23.14;46.36;100771.19;5046471;28;20603;-73
2021/05/11 12:27:14;;;;;;;3.10;1.07;;;;;;;23.27;47.10;100762.38;5045125;28;20240;-74
2021/05/11 12:30:01;;;;;;;0.97;0.90;;;;;;;23.50;46.37;100754.91;5050299;28;20212;-73
2021/05/11 12:32:29;;;;;;;1.43;0.90;;;;;;;23.43;45.88;100734.78;5028721;28;20197;-73
2021/05/11 12:35:05;;;;;;;1.33;1.00;;;;;;;23.61;46.30;100767.34;5040714;28;20220;-74
2021/05/11 12:37:47;;;;;;;3.43;1.90;;;;;;;23.37;48.07;100764.81;5048362;28;20563;-74
2021/05/11 12:40:28;;;;;;;2.20;2.00;;;;;;;23.24;47.87;100765.44;5050151;28;20569;-74
2021/05/11 12:42:57;;;;;;;2.63;2.07;;;;;;;23.19;47.14;100763.25;5061588;28;20263;-74
2021/05/11 12:45:26;;;;;;;4.57;1.90;;;;;;;23.15;46.30;100756.47;5062142;28;20212;-74
2021/05/11 12:48:00;;;;;;;2.73;2.10;;;;;;;23.17;47.63;100761.75;5061329;28;20834;-74
2021/05/11 12:50:31;;;;;;;4.27;2.27;;;;;;;22.89;46.16;100743.16;5049356;28;20209;-74
2021/05/11 12:53:24;;;;;;;2.10;1.70;;;;;;;22.70;47.03;100753.75;5062036;28;20208;-74
2021/05/11 12:56:04;;;;;;;2.27;2.07;;;;;;;22.60;47.36;100743.00;5061552;28;20213;-74
2021/05/11 12:58:41;;;;;;;3.17;1.70;;;;;;;22.68;48.48;100734.75;5061926;28;20201;-74
2021/05/11 13:01:56;;;;;;;3.73;1.93;;;;;;;22.74;46.82;100742.22;5062589;28;20200;-73
2021/05/11 13:26:45;;;;;;;2.20;2.00;;;;;;;22.08;47.41;100751.03;5063056;28;20213;-75
2021/05/11 13:29:27;;;;;;;2.20;2.00;;;;;;;22.16;48.54;100742.78;5065316;28;20193;-74
2021/05/11 13:31:58;;;;;;;2.63;2.10;;;;;;;21.81;47.57;100761.38;5065423;28;20220;-74
2021/05/11 13:34:27;;;;;;;2.07;1.87;;;;;;;21.68;48.00;100764.66;5048420;28;20197;-75
2021/05/11 13:36:55;;;;;;;1.93;1.80;;;;;;;21.39;48.00;100758.91;5064992;28;20186;-74
2021/05/11 13:39:23;;;;;;;3.93;2.57;;;;;;;21.42;47.93;100754.97;5063884;28;20763;-74
2021/05/11 13:41:50;;;;;;;3.60;1.90;;;;;;;21.53;46.90;100758.22;5066759;28;20671;-74
2021/05/11 13:44:20;;;;;;;2.40;2.10;;;;;;;21.64;47.95;100757.81;5064498;28;20201;-74
2021/05/11 13:46:47;;;;;;;1.90;1.80;;;;;;;21.45;46.72;100760.13;5064055;28;20367;-74
2021/05/11 13:49:18;;;;;;;2.17;1.90;;;;;;;21.52;46.09;100758.38;5061563;28;20231;-74
2021/05/11 13:51:46;;;;;;;2.97;1.83;;;;;;;21.14;45.49;100765.41;5062975;28;21870;-75
2021/05/11 13:54:16;;;;;;;1.93;1.73;;;;;;;20.78;45.84;100763.84;5062635;28;20197;-73
2021/05/11 13:57:00;;;;;;;4.33;2.10;;;;;;;20.59;44.90;100750.56;5059502;28;20201;-75
2021/05/11 14:04:56;;;;;;;2.43;1.83;;;;;;;20.41;44.76;100731.59;5049467;28;20975;-74
2021/05/11 14:07:24;;;;;;;4.07;1.63;;;;;;;20.58;44.53;100735.19;5063308;28;20640;-74
2021/05/11 14:09:52;;;;;;;3.70;1.93;;;;;;;20.56;44.62;100730.94;5062425;28;20593;-74
2021/05/11 14:12:19;;;;;;;1.93;1.67;;;;;;;20.70;44.90;100727.53;5060098;28;20219;-74
2021/05/11 14:14:48;;;;;;;3.07;2.20;;;;;;;20.90;44.94;100738.97;5063739;28;20640;-74
2021/05/11 14:17:16;;;;;;;2.30;2.07;;;;;;;20.84;45.09;100728.75;5060674;28;20250;-74
2021/05/11 14:19:46;;;;;;;2.70;2.00;;;;;;;20.90;45.69;100733.50;5050998;28;20581;-74
2021/05/11 14:22:14;;;;;;;2.83;1.90;;;;;;;20.94;45.77;100729.41;5041662;28;20212;-74
2021/05/11 14:24:42;;;;;;;2.37;2.00;;;;;;;20.87;45.42;100729.25;5061850;28;20197;-74
2021/05/11 14:27:18;;;;;;;2.73;1.70;;;;;;;21.00;45.01;100729.56;5064105;28;20319;-74
2021/05/11 14:29:46;;;;;;;2.37;1.50;;;;;;;20.74;45.27;100642.38;5063819;28;20197;-74
2021/05/11 14:32:15;;;;;;;3.40;2.10;;;;;;;21.28;45.07;100721.88;5048372;28;20228;-74
2021/05/11 14:34:43;;;;;;;1.70;1.60;;;;;;;21.44;44.24;100720.16;5041037;28;20225;-74
2021/05/11 14:37:11;;;;;;;2.50;1.90;;;;;;;21.41;44.74;100720.47;5058681;28;20610;-74
2021/05/11 14:39:38;;;;;;;3.27;1.97;;;;;;;21.46;44.33;100713.47;5044657;28;20296;-74
2021/05/11 14:42:07;;;;;;;2.30;2.00;;;;;;;21.23;43.86;100650.53;5056269;28;20220;-74
2021/05/11 14:44:34;;;;;;;6.30;2.10;;;;;;;21.60;44.89;100711.88;5048439;28;20286;-74
2021/05/11 14:47:03;;;;;;;2.97;1.97;;;;;;;21.63;44.85;100701.44;5058095;28;20236;-74
2021/05/11 14:49:33;;;;;;;4.77;2.00;;;;;;;21.64;45.24;100702.28;5060982;28;20611;-74
2021/05/11 14:52:00;;;;;;;2.67;2.10;;;;;;;21.58;44.44;100692.94;5058712;28;20215;-74
2021/05/11 14:54:29;;;;;;;2.20;1.97;;;;;;;21.48;44.30;100692.28;5064648;28;20559;-75
2021/05/11 14:56:57;;;;;;;2.97;2.53;;;;;;;21.30;44.12;100688.91;5048034;28;20201;-75
2021/05/11 14:59:25;;;;;;;2.67;2.00;;;;;;;21.17;43.44;100694.91;5054959;28;20197;-74
2021/05/11 15:01:53;;;;;;;3.53;1.80;;;;;;;21.29;43.63;100690.81;5042566;28;21998;-74
2021/05/11 15:04:20;;;;;;;5.03;2.03;;;;;;;21.28;44.00;100680.03;5036470;28;20206;-74
2021/05/11 15:06:50;;;;;;;3.33;2.27;;;;;;;20.53;44.12;100582.06;5058386;28;21820;-74